sensor_id;sensor_type;location;lat;lon;timestamp;temperature;humidity
13598;DHT22;38563;54.258;12.574;2023-09-12T01:02:59;17.40;99.90
13598;DHT22;38563;54.258;12.574;2023-09-12T01:05:26;17.40;99.90
13598;DHT22;38563;54.258;12.574;2023-09-12T01:07:54;17.30;99.90
13598;DHT22;38563;54.258;12.574;2023-09-12T01:10:22;17.40;99.90
13598;DHT22;38563;54.258;12.574;2023-09-12T01:12:49;17.40;99.90
13598;DHT22;38563;54.258;12.574;2023-09-12T01:15:16;17.50;99.90
13598;DHT22;38563;54.258;12.574;2023-09-12T01:17:43;17.50;99.90
13598;DHT22;38563;54.258;12.574;2023-09-12T01:20:15;17.50;99.90
13598;DHT22;38563;54.258;12.574;2023-09-12T01:22:55;17.60;99.90
13598;DHT22;38563;54.258;12.574;2023-09-12T01:26:12;17.60;99.90
13598;DHT22;38563;54.258;12.574;2023-09-12T01:28:45;17.60;99.90
13598;DHT22;38563;54.258;12.574;2023-09-12T01:31:15;17.60;99.90
13598;DHT22;38563;54.258;12.574;2023-09-12T01:33:42;17.60;99.90
13598;DHT22;38563;54.258;12.574;2023-09-12T01:36:09;17.60;99.90
13598;DHT22;38563;54.258;12.574;2023-09-12T01:38:36;17.60;99.90
13598;DHT22;38563;54.258;12.574;2023-09-12T01:41:03;17.50;99.90
13598;DHT22;38563;54.258;12.574;2023-09-12T01:43:31;17.50;99.90
13598;DHT22;38563;54.258;12.574;2023-09-12T01:46:00;17.40;99.90
13598;DHT22;38563;54.258;12.574;2023-09-12T01:48:32;17.40;99.90
13598;DHT22;38563;54.258;12.574;2023-09-12T01:51:00;17.40;99.90
13598;DHT22;38563;54.258;12.574;2023-09-12T01:53:28;17.30;99.90
13598;DHT22;38563;54.258;12.574;2023-09-12T01:55:56;17.30;99.90
13598;DHT22;38563;54.258;12.574;2023-09-12T01:58:26;17.30;99.90
13598;DHT22;38563;54.258;12.574;2023-09-12T02:00:53;17.20;99.90
13598;DHT22;38563;54.258;12.574;2023-09-12T02:03:22;17.30;99.90
13598;DHT22;38563;54.258;12.574;2023-09-12T02:05:49;17.30;99.90
13598;DHT22;38563;54.258;12.574;2023-09-12T02:08:16;17.30;99.90
13598;DHT22;38563;54.258;12.574;2023-09-12T02:10:42;17.30;99.90
13598;DHT22;38563;54.258;12.574;2023-09-12T02:13:09;17.20;99.90
13598;DHT22;38563;54.258;12.574;2023-09-12T02:15:36;17.20;99.90
13598;DHT22;38563;54.258;12.574;2023-09-12T02:18:03;17.20;99.90
13598;DHT22;38563;54.258;12.574;2023-09-12T02:20:32;17.20;99.90
13598;DHT22;38563;54.258;12.574;2023-09-12T02:22:59;17.20;99.90
13598;DHT22;38563;54.258;12.574;2023-09-12T02:25:25;17.30;99.90
13598;DHT22;38563;54.258;12.574;2023-09-12T02:27:52;17.20;99.90
13598;DHT22;38563;54.258;12.574;2023-09-12T02:30:19;17.20;99.90
13598;DHT22;38563;54.258;12.574;2023-09-12T02:32:45;17.20;99.90
13598;DHT22;38563;54.258;12.574;2023-09-12T02:35:12;17.30;99.90
13598;DHT22;38563;54.258;12.574;2023-09-12T02:37:40;17.20;99.90
13598;DHT22;38563;54.258;12.574;2023-09-12T02:40:08;17.20;99.90
13598;DHT22;38563;54.258;12.574;2023-09-12T02:42:36;17.20;99.90
13598;DHT22;38563;54.258;12.574;2023-09-12T02:45:04;17.20;99.90
13598;DHT22;38563;54.258;12.574;2023-09-12T02:47:31;17.20;99.90
13598;DHT22;38563;54.258;12.574;2023-09-12T02:49:58;17.20;99.90
13598;DHT22;38563;54.258;12.574;2023-09-12T02:52:24;17.10;99.90
13598;DHT22;38563;54.258;12.574;2023-09-12T02:54:52;17.10;99.90
13598;DHT22;38563;54.258;12.574;2023-09-12T02:57:19;17.10;99.90
13598;DHT22;38563;54.258;12.574;2023-09-12T02:59:46;17.10;99.90
13598;DHT22;38563;54.258;12.574;2023-09-12T03:02:13;17.00;99.90
13598;DHT22;38563;54.258;12.574;2023-09-12T03:04:40;17.00;99.90
13598;DHT22;38563;54.258;12.574;2023-09-12T03:07:06;17.00;99.90
13598;DHT22;38563;54.258;12.574;2023-09-12T03:09:33;17.00;99.90
13598;DHT22;38563;54.258;12.574;2023-09-12T03:12:02;17.00;99.90
13598;DHT22;38563;54.258;12.574;2023-09-12T03:14:29;17.00;99.90
13598;DHT22;38563;54.258;12.574;2023-09-12T03:16:56;17.00;99.90
13598;DHT22;38563;54.258;12.574;2023-09-12T03:19:22;16.90;99.90
13598;DHT22;38563;54.258;12.574;2023-09-12T03:21:49;16.90;99.90
13598;DHT22;38563;54.258;12.574;2023-09-12T03:24:16;16.90;99.90
13598;DHT22;38563;54.258;12.574;2023-09-12T03:26:43;16.90;99.90
13598;DHT22;38563;54.258;12.574;2023-09-12T03:29:11;16.80;99.90
13598;DHT22;38563;54.258;12.574;2023-09-12T03:31:38;16.90;99.90
13598;DHT22;38563;54.258;12.574;2023-09-12T03:34:05;16.90;99.90
13598;DHT22;38563;54.258;12.574;2023-09-12T03:36:32;16.90;99.90
13598;DHT22;38563;54.258;12.574;2023-09-12T03:38:59;16.80;99.90
13598;DHT22;38563;54.258;12.574;2023-09-12T03:41:26;16.70;99.90
13598;DHT22;38563;54.258;12.574;2023-09-12T03:43:57;16.50;99.90
13598;DHT22;38563;54.258;12.574;2023-09-12T03:46:25;16.40;99.90
13598;DHT22;38563;54.258;12.574;2023-09-12T03:48:51;16.30;99.90
13598;DHT22;38563;54.258;12.574;2023-09-12T03:51:19;16.20;99.90
13598;DHT22;38563;54.258;12.574;2023-09-12T03:53:45;16.30;99.90
13598;DHT22;38563;54.258;12.574;2023-09-12T03:56:13;16.30;99.90
13598;DHT22;38563;54.258;12.574;2023-09-12T03:58:41;16.30;99.90
13598;DHT22;38563;54.258;12.574;2023-09-12T04:01:08;16.30;99.90
13598;DHT22;38563;54.258;12.574;2023-09-12T04:03:36;16.40;99.90
13598;DHT22;38563;54.258;12.574;2023-09-12T04:06:03;16.50;99.90
13598;DHT22;38563;54.258;12.574;2023-09-12T04:08:30;16.70;99.90
13598;DHT22;38563;54.258;12.574;2023-09-12T04:10:57;16.80;99.90
13598;DHT22;38563;54.258;12.574;2023-09-12T04:13:24;16.90;99.90
13598;DHT22;38563;54.258;12.574;2023-09-12T04:15:51;17.00;99.90
13598;DHT22;38563;54.258;12.574;2023-09-12T04:18:18;17.00;99.90
13598;DHT22;38563;54.258;12.574;2023-09-12T04:20:46;17.00;99.90
13598;DHT22;38563;54.258;12.574;2023-09-12T04:23:12;17.10;99.90
13598;DHT22;38563;54.258;12.574;2023-09-12T04:25:41;17.00;99.90
13598;DHT22;38563;54.258;12.574;2023-09-12T04:28:08;17.00;99.90
13598;DHT22;38563;54.258;12.574;2023-09-12T04:30:36;17.00;99.90
13598;DHT22;38563;54.258;12.574;2023-09-12T04:33:05;17.00;99.90
13598;DHT22;38563;54.258;12.574;2023-09-12T04:35:33;17.00;99.90
13598;DHT22;38563;54.258;12.574;2023-09-12T04:38:01;16.80;99.90
13598;DHT22;38563;54.258;12.574;2023-09-12T04:40:28;16.70;99.90
13598;DHT22;38563;54.258;12.574;2023-09-12T04:42:55;16.70;99.90
13598;DHT22;38563;54.258;12.574;2023-09-12T04:45:21;16.70;99.90
13598;DHT22;38563;54.258;12.574;2023-09-12T04:47:48;16.70;99.90
13598;DHT22;38563;54.258;12.574;2023-09-12T04:50:15;16.80;99.90
13598;DHT22;38563;54.258;12.574;2023-09-12T04:52:42;17.00;99.90
13598;DHT22;38563;54.258;12.574;2023-09-12T04:55:10;17.10;99.90
13598;DHT22;38563;54.258;12.574;2023-09-12T04:57:37;17.30;99.90
13598;DHT22;38563;54.258;12.574;2023-09-12T05:00:04;17.40;99.90
13598;DHT22;38563;54.258;12.574;2023-09-12T05:02:31;17.50;99.90
13598;DHT22;38563;54.258;12.574;2023-09-12T05:04:58;17.60;99.90
13598;DHT22;38563;54.258;12.574;2023-09-12T05:07:25;17.60;99.90
13598;DHT22;38563;54.258;12.574;2023-09-12T05:09:52;17.70;99.90
13598;DHT22;38563;54.258;12.574;2023-09-12T05:12:21;17.70;99.90
13598;DHT22;38563;54.258;12.574;2023-09-12T05:14:48;17.80;99.90
13598;DHT22;38563;54.258;12.574;2023-09-12T05:17:14;17.80;99.90
13598;DHT22;38563;54.258;12.574;2023-09-12T05:19:41;17.90;99.90
13598;DHT22;38563;54.258;12.574;2023-09-12T05:22:08;18.10;99.90
13598;DHT22;38563;54.258;12.574;2023-09-12T05:24:35;18.20;99.90
13598;DHT22;38563;54.258;12.574;2023-09-12T05:27:01;18.30;99.90
13598;DHT22;38563;54.258;12.574;2023-09-12T05:29:30;18.40;99.90
13598;DHT22;38563;54.258;12.574;2023-09-12T05:31:57;18.60;99.90
13598;DHT22;38563;54.258;12.574;2023-09-12T05:34:24;18.60;99.90
13598;DHT22;38563;54.258;12.574;2023-09-12T05:36:50;18.80;99.90
13598;DHT22;38563;54.258;12.574;2023-09-12T05:39:17;18.80;99.90
13598;DHT22;38563;54.258;12.574;2023-09-12T05:41:44;18.90;99.90
13598;DHT22;38563;54.258;12.574;2023-09-12T05:44:11;18.90;99.90
13598;DHT22;38563;54.258;12.574;2023-09-12T05:46:44;19.00;99.90
13598;DHT22;38563;54.258;12.574;2023-09-12T05:49:12;19.00;99.90
13598;DHT22;38563;54.258;12.574;2023-09-12T05:51:39;19.00;99.90
13598;DHT22;38563;54.258;12.574;2023-09-12T05:54:06;19.00;99.90
13598;DHT22;38563;54.258;12.574;2023-09-12T05:56:33;19.00;99.90
13598;DHT22;38563;54.258;12.574;2023-09-12T05:59:00;19.00;99.90
13598;DHT22;38563;54.258;12.574;2023-09-12T06:01:27;19.00;99.90
13598;DHT22;38563;54.258;12.574;2023-09-12T06:03:55;19.00;99.90
13598;DHT22;38563;54.258;12.574;2023-09-12T06:06:22;18.90;99.90
13598;DHT22;38563;54.258;12.574;2023-09-12T06:08:49;18.90;99.90
13598;DHT22;38563;54.258;12.574;2023-09-12T06:11:15;18.90;99.90
13598;DHT22;38563;54.258;12.574;2023-09-12T06:13:42;19.00;99.90
13598;DHT22;38563;54.258;12.574;2023-09-12T06:16:09;19.00;99.90
13598;DHT22;38563;54.258;12.574;2023-09-12T06:18:35;19.00;99.90
13598;DHT22;38563;54.258;12.574;2023-09-12T06:21:03;19.10;99.90
13598;DHT22;38563;54.258;12.574;2023-09-12T06:23:34;19.00;99.90
13598;DHT22;38563;54.258;12.574;2023-09-12T06:26:00;19.00;99.90
13598;DHT22;38563;54.258;12.574;2023-09-12T06:28:28;19.10;99.90
13598;DHT22;38563;54.258;12.574;2023-09-12T06:30:55;19.10;99.90
13598;DHT22;38563;54.258;12.574;2023-09-12T06:33:23;19.10;99.90
13598;DHT22;38563;54.258;12.574;2023-09-12T06:35:50;19.20;99.90
13598;DHT22;38563;54.258;12.574;2023-09-12T06:38:20;19.20;99.90
13598;DHT22;38563;54.258;12.574;2023-09-12T06:40:46;19.30;99.90
13598;DHT22;38563;54.258;12.574;2023-09-12T06:43:13;19.50;99.90
13598;DHT22;38563;54.258;12.574;2023-09-12T06:45:40;19.60;99.90
13598;DHT22;38563;54.258;12.574;2023-09-12T06:48:07;19.80;99.90
13598;DHT22;38563;54.258;12.574;2023-09-12T06:50:34;20.00;99.90
13598;DHT22;38563;54.258;12.574;2023-09-12T06:53:03;20.10;99.90
13598;DHT22;38563;54.258;12.574;2023-09-12T06:55:33;20.20;99.90
13598;DHT22;38563;54.258;12.574;2023-09-12T06:57:59;20.40;99.90
13598;DHT22;38563;54.258;12.574;2023-09-12T07:00:26;20.50;99.90
13598;DHT22;38563;54.258;12.574;2023-09-12T07:02:53;20.50;99.90
13598;DHT22;38563;54.258;12.574;2023-09-12T07:05:19;20.60;99.90
13598;DHT22;38563;54.258;12.574;2023-09-12T07:07:46;20.70;99.90
13598;DHT22;38563;54.258;12.574;2023-09-12T07:10:13;20.70;99.90
13598;DHT22;38563;54.258;12.574;2023-09-12T07:12:41;20.60;99.90
13598;DHT22;38563;54.258;12.574;2023-09-12T07:15:08;20.60;99.90
13598;DHT22;38563;54.258;12.574;2023-09-12T07:17:35;20.50;99.90
13598;DHT22;38563;54.258;12.574;2023-09-12T07:20:01;20.50;99.90
13598;DHT22;38563;54.258;12.574;2023-09-12T07:22:28;20.50;99.90
13598;DHT22;38563;54.258;12.574;2023-09-12T07:24:55;20.60;99.90
13598;DHT22;38563;54.258;12.574;2023-09-12T07:27:21;20.60;99.90
13598;DHT22;38563;54.258;12.574;2023-09-12T07:29:49;20.50;99.90
13598;DHT22;38563;54.258;12.574;2023-09-12T07:32:16;20.40;99.90
13598;DHT22;38563;54.258;12.574;2023-09-12T07:34:44;20.40;99.90
13598;DHT22;38563;54.258;12.574;2023-09-12T07:37:14;20.40;99.90
13598;DHT22;38563;54.258;12.574;2023-09-12T07:39:40;20.60;99.90
13598;DHT22;38563;54.258;12.574;2023-09-12T07:42:07;20.70;99.90
13598;DHT22;38563;54.258;12.574;2023-09-12T07:44:34;20.70;99.90
13598;DHT22;38563;54.258;12.574;2023-09-12T08:54:32;21.30;99.90
13598;DHT22;38563;54.258;12.574;2023-09-12T08:57:00;21.30;99.90
13598;DHT22;38563;54.258;12.574;2023-09-12T08:59:28;21.30;99.90
13598;DHT22;38563;54.258;12.574;2023-09-12T09:01:56;21.30;99.90
13598;DHT22;38563;54.258;12.574;2023-09-12T09:04:24;21.30;99.90
13598;DHT22;38563;54.258;12.574;2023-09-12T09:06:52;21.40;99.90
13598;DHT22;38563;54.258;12.574;2023-09-12T09:09:21;21.40;99.90
13598;DHT22;38563;54.258;12.574;2023-09-12T09:11:50;21.60;99.90
13598;DHT22;38563;54.258;12.574;2023-09-12T09:14:17;21.70;99.90
13598;DHT22;38563;54.258;12.574;2023-09-12T09:16:44;21.80;99.90
13598;DHT22;38563;54.258;12.574;2023-09-12T09:19:10;22.00;99.90
13598;DHT22;38563;54.258;12.574;2023-09-12T09:21:38;22.10;99.90
13598;DHT22;38563;54.258;12.574;2023-09-12T09:24:07;22.10;99.90
13598;DHT22;38563;54.258;12.574;2023-09-12T09:26:45;22.00;99.90
13598;DHT22;38563;54.258;12.574;2023-09-12T09:29:15;22.00;99.90
13598;DHT22;38563;54.258;12.574;2023-09-12T09:31:43;22.10;99.90
13598;DHT22;38563;54.258;12.574;2023-09-12T09:34:12;22.30;99.90
13598;DHT22;38563;54.258;12.574;2023-09-12T09:36:41;22.40;99.90
13598;DHT22;38563;54.258;12.574;2023-09-12T09:39:09;22.50;99.90
13598;DHT22;38563;54.258;12.574;2023-09-12T09:41:36;22.40;99.90
13598;DHT22;38563;54.258;12.574;2023-09-12T09:44:04;22.40;99.90
13598;DHT22;38563;54.258;12.574;2023-09-12T09:46:32;22.60;99.90
13598;DHT22;38563;54.258;12.574;2023-09-12T09:48:59;22.80;99.90
13598;DHT22;38563;54.258;12.574;2023-09-12T09:51:26;22.90;99.90
13598;DHT22;38563;54.258;12.574;2023-09-12T09:53:53;23.00;99.90
13598;DHT22;38563;54.258;12.574;2023-09-12T09:56:24;23.20;99.90
13598;DHT22;38563;54.258;12.574;2023-09-12T09:58:52;23.30;99.90
13598;DHT22;38563;54.258;12.574;2023-09-12T10:01:21;23.30;99.90
13598;DHT22;38563;54.258;12.574;2023-09-12T10:03:50;23.60;99.90
13598;DHT22;38563;54.258;12.574;2023-09-12T10:06:18;23.70;99.90
13598;DHT22;38563;54.258;12.574;2023-09-12T10:08:52;23.90;99.90
13598;DHT22;38563;54.258;12.574;2023-09-12T10:11:22;23.90;99.90
13598;DHT22;38563;54.258;12.574;2023-09-12T10:13:53;23.80;99.90
13598;DHT22;38563;54.258;12.574;2023-09-12T10:16:22;23.60;99.90
13598;DHT22;38563;54.258;12.574;2023-09-12T10:18:58;23.50;99.90
13598;DHT22;38563;54.258;12.574;2023-09-12T10:21:29;23.50;99.90
13598;DHT22;38563;54.258;12.574;2023-09-12T10:23:58;23.50;99.90
13598;DHT22;38563;54.258;12.574;2023-09-12T10:26:25;23.60;99.90
13598;DHT22;38563;54.258;12.574;2023-09-12T10:28:52;23.70;99.90
13598;DHT22;38563;54.258;12.574;2023-09-12T10:31:21;23.60;99.90
13598;DHT22;38563;54.258;12.574;2023-09-12T10:33:51;23.70;99.90
13598;DHT22;38563;54.258;12.574;2023-09-12T10:36:19;23.60;99.90
13598;DHT22;38563;54.258;12.574;2023-09-12T10:38:48;23.50;99.90
13598;DHT22;38563;54.258;12.574;2023-09-12T10:41:15;23.40;99.90
13598;DHT22;38563;54.258;12.574;2023-09-12T10:43:44;23.30;99.90
13598;DHT22;38563;54.258;12.574;2023-09-12T10:46:12;23.30;99.90
13598;DHT22;38563;54.258;12.574;2023-09-12T10:48:39;23.30;99.90
13598;DHT22;38563;54.258;12.574;2023-09-12T10:51:08;23.10;99.90
13598;DHT22;38563;54.258;12.574;2023-09-12T10:53:37;23.00;99.90
13598;DHT22;38563;54.258;12.574;2023-09-12T10:56:15;22.90;99.90
13598;DHT22;38563;54.258;12.574;2023-09-12T10:59:11;22.80;99.90
13598;DHT22;38563;54.258;12.574;2023-09-12T11:01:39;22.70;99.90
13598;DHT22;38563;54.258;12.574;2023-09-12T11:04:31;22.70;99.90
13598;DHT22;38563;54.258;12.574;2023-09-12T11:07:01;22.60;99.90
13598;DHT22;38563;54.258;12.574;2023-09-12T11:09:28;22.60;99.90
13598;DHT22;38563;54.258;12.574;2023-09-12T11:11:57;22.50;99.90
13598;DHT22;38563;54.258;12.574;2023-09-12T11:14:25;22.40;99.90
13598;DHT22;38563;54.258;12.574;2023-09-12T11:17:20;22.20;99.90
13598;DHT22;38563;54.258;12.574;2023-09-12T11:19:48;22.00;99.90
13598;DHT22;38563;54.258;12.574;2023-09-12T11:22:26;21.80;99.90
13598;DHT22;38563;54.258;12.574;2023-09-12T11:24:54;21.80;99.90
13598;DHT22;38563;54.258;12.574;2023-09-12T11:27:22;21.80;99.90
13598;DHT22;38563;54.258;12.574;2023-09-12T11:29:49;21.60;99.90
13598;DHT22;38563;54.258;12.574;2023-09-12T11:32:31;21.50;99.90
13598;DHT22;38563;54.258;12.574;2023-09-12T11:35:00;21.50;99.90
13598;DHT22;38563;54.258;12.574;2023-09-12T11:37:32;21.40;99.90
13598;DHT22;38563;54.258;12.574;2023-09-12T11:40:01;21.50;99.90
13598;DHT22;38563;54.258;12.574;2023-09-12T11:42:28;21.60;99.90
13598;DHT22;38563;54.258;12.574;2023-09-12T11:44:56;21.70;99.90
13598;DHT22;38563;54.258;12.574;2023-09-12T11:47:23;21.70;99.90
13598;DHT22;38563;54.258;12.574;2023-09-12T11:49:50;21.70;99.90
13598;DHT22;38563;54.258;12.574;2023-09-12T11:52:17;21.80;99.90
13598;DHT22;38563;54.258;12.574;2023-09-12T11:54:46;21.80;99.90
13598;DHT22;38563;54.258;12.574;2023-09-12T11:57:14;21.90;99.90
13598;DHT22;38563;54.258;12.574;2023-09-12T11:59:43;21.90;99.90
13598;DHT22;38563;54.258;12.574;2023-09-12T12:02:11;22.00;99.90
13598;DHT22;38563;54.258;12.574;2023-09-12T12:04:38;22.00;99.90
13598;DHT22;38563;54.258;12.574;2023-09-12T12:07:05;22.00;99.90
13598;DHT22;38563;54.258;12.574;2023-09-12T12:09:32;22.10;99.90
13598;DHT22;38563;54.258;12.574;2023-09-12T12:12:08;22.20;99.90
13598;DHT22;38563;54.258;12.574;2023-09-12T12:14:35;22.30;99.90
13598;DHT22;38563;54.258;12.574;2023-09-12T12:17:06;22.40;99.90
13598;DHT22;38563;54.258;12.574;2023-09-12T12:19:34;22.40;99.90
13598;DHT22;38563;54.258;12.574;2023-09-12T12:22:02;22.50;99.90
13598;DHT22;38563;54.258;12.574;2023-09-12T12:24:36;22.40;99.90
13598;DHT22;38563;54.258;12.574;2023-09-12T12:27:05;22.30;99.90
13598;DHT22;38563;54.258;12.574;2023-09-12T12:29:34;22.40;99.90
13598;DHT22;38563;54.258;12.574;2023-09-12T12:32:01;22.50;99.90
13598;DHT22;38563;54.258;12.574;2023-09-12T12:34:28;22.60;99.90
13598;DHT22;38563;54.258;12.574;2023-09-12T12:36:55;22.50;99.90
13598;DHT22;38563;54.258;12.574;2023-09-12T12:39:22;22.50;99.90
13598;DHT22;38563;54.258;12.574;2023-09-12T12:41:52;22.80;99.90
13598;DHT22;38563;54.258;12.574;2023-09-12T12:44:20;22.90;99.90
13598;DHT22;38563;54.258;12.574;2023-09-12T12:46:50;23.00;99.90
13598;DHT22;38563;54.258;12.574;2023-09-12T12:49:17;23.00;99.90
13598;DHT22;38563;54.258;12.574;2023-09-12T12:51:45;22.80;99.90
13598;DHT22;38563;54.258;12.574;2023-09-12T12:54:12;22.50;99.90
13598;DHT22;38563;54.258;12.574;2023-09-12T12:56:39;22.70;99.90
13598;DHT22;38563;54.258;12.574;2023-09-12T12:59:07;22.80;99.90
13598;DHT22;38563;54.258;12.574;2023-09-12T13:01:37;23.10;99.90
13598;DHT22;38563;54.258;12.574;2023-09-12T13:04:05;23.20;99.90
13598;DHT22;38563;54.258;12.574;2023-09-12T13:06:32;23.10;99.90
13598;DHT22;38563;54.258;12.574;2023-09-12T13:09:01;23.10;99.90
13598;DHT22;38563;54.258;12.574;2023-09-12T13:11:30;23.30;99.90
13598;DHT22;38563;54.258;12.574;2023-09-12T13:13:57;23.60;99.90
13598;DHT22;38563;54.258;12.574;2023-09-12T13:16:24;23.80;99.90
13598;DHT22;38563;54.258;12.574;2023-09-12T13:18:52;23.50;99.90
13598;DHT22;38563;54.258;12.574;2023-09-12T13:21:19;23.20;99.90
13598;DHT22;38563;54.258;12.574;2023-09-12T13:23:45;23.00;99.90
13598;DHT22;38563;54.258;12.574;2023-09-12T13:26:12;22.80;99.90
13598;DHT22;38563;54.258;12.574;2023-09-12T13:28:39;22.70;99.90
13598;DHT22;38563;54.258;12.574;2023-09-12T13:31:07;22.80;99.90
13598;DHT22;38563;54.258;12.574;2023-09-12T13:33:33;22.80;99.90
13598;DHT22;38563;54.258;12.574;2023-09-12T13:36:02;22.90;99.90
13598;DHT22;38563;54.258;12.574;2023-09-12T13:38:29;23.10;99.90
13598;DHT22;38563;54.258;12.574;2023-09-12T13:40:56;23.20;99.90
13598;DHT22;38563;54.258;12.574;2023-09-12T13:43:22;23.20;99.90
13598;DHT22;38563;54.258;12.574;2023-09-12T13:45:49;23.20;99.90
13598;DHT22;38563;54.258;12.574;2023-09-12T14:04:38;22.80;99.90
13598;DHT22;38563;54.258;12.574;2023-09-12T14:07:05;22.80;99.90
13598;DHT22;38563;54.258;12.574;2023-09-12T14:09:32;22.80;99.90
13598;DHT22;38563;54.258;12.574;2023-09-12T14:11:58;22.80;99.90
13598;DHT22;38563;54.258;12.574;2023-09-12T14:14:25;22.80;99.90
13598;DHT22;38563;54.258;12.574;2023-09-12T14:16:52;22.90;99.90
13598;DHT22;38563;54.258;12.574;2023-09-12T14:19:19;22.90;99.90
13598;DHT22;38563;54.258;12.574;2023-09-12T14:21:47;23.10;99.90
13598;DHT22;38563;54.258;12.574;2023-09-12T14:24:14;23.20;99.90
13598;DHT22;38563;54.258;12.574;2023-09-12T14:26:40;23.30;99.90
13598;DHT22;38563;54.258;12.574;2023-09-12T14:29:07;23.30;99.90
13598;DHT22;38563;54.258;12.574;2023-09-12T14:31:34;23.10;99.90
13598;DHT22;38563;54.258;12.574;2023-09-12T14:34:02;23.00;99.90
13598;DHT22;38563;54.258;12.574;2023-09-12T14:36:30;23.00;99.90
13598;DHT22;38563;54.258;12.574;2023-09-12T14:38:58;22.90;99.90
13598;DHT22;38563;54.258;12.574;2023-09-12T14:41:25;22.80;99.90
13598;DHT22;38563;54.258;12.574;2023-09-12T14:43:51;22.70;99.90
13598;DHT22;38563;54.258;12.574;2023-09-12T14:46:18;22.60;99.90
13598;DHT22;38563;54.258;12.574;2023-09-12T14:48:45;22.50;99.90
13598;DHT22;38563;54.258;12.574;2023-09-12T14:51:11;22.40;99.90
13598;DHT22;38563;54.258;12.574;2023-09-12T14:53:38;22.20;99.90
13598;DHT22;38563;54.258;12.574;2023-09-12T14:56:10;22.00;99.90
13598;DHT22;38563;54.258;12.574;2023-09-12T14:58:37;21.50;99.90
13598;DHT22;38563;54.258;12.574;2023-09-12T15:01:04;21.10;99.90
13598;DHT22;38563;54.258;12.574;2023-09-12T15:03:30;20.90;99.90
13598;DHT22;38563;54.258;12.574;2023-09-12T15:06:04;20.70;99.90
13598;DHT22;38563;54.258;12.574;2023-09-12T15:08:31;20.60;99.90
13598;DHT22;38563;54.258;12.574;2023-09-12T15:10:57;20.40;99.90
13598;DHT22;38563;54.258;12.574;2023-09-12T15:13:25;20.30;99.90
13598;DHT22;38563;54.258;12.574;2023-09-12T15:15:52;20.30;99.90
13598;DHT22;38563;54.258;12.574;2023-09-12T15:18:19;20.20;99.90
13598;DHT22;38563;54.258;12.574;2023-09-12T15:20:46;20.20;99.90
13598;DHT22;38563;54.258;12.574;2023-09-12T15:23:12;20.20;99.90
13598;DHT22;38563;54.258;12.574;2023-09-12T15:25:39;20.20;99.90
13598;DHT22;38563;54.258;12.574;2023-09-12T15:28:05;20.10;99.90
13598;DHT22;38563;54.258;12.574;2023-09-12T15:30:33;20.10;99.90
13598;DHT22;38563;54.258;12.574;2023-09-12T15:33:00;20.10;99.90
13598;DHT22;38563;54.258;12.574;2023-09-12T15:35:27;20.00;99.90
13598;DHT22;38563;54.258;12.574;2023-09-12T15:37:53;20.00;99.90
13598;DHT22;38563;54.258;12.574;2023-09-12T15:40:20;19.90;99.90
13598;DHT22;38563;54.258;12.574;2023-09-12T15:42:47;19.90;99.90
13598;DHT22;38563;54.258;12.574;2023-09-12T15:45:14;19.80;99.90
13598;DHT22;38563;54.258;12.574;2023-09-12T15:47:42;19.70;99.90
13598;DHT22;38563;54.258;12.574;2023-09-12T15:50:10;19.80;99.90
13598;DHT22;38563;54.258;12.574;2023-09-12T15:52:36;19.70;99.90
13598;DHT22;38563;54.258;12.574;2023-09-12T15:55:03;19.70;99.90
13598;DHT22;38563;54.258;12.574;2023-09-12T15:57:31;19.60;99.90
13598;DHT22;38563;54.258;12.574;2023-09-12T15:59:58;19.60;99.90
13598;DHT22;38563;54.258;12.574;2023-09-12T16:02:25;19.60;99.90
13598;DHT22;38563;54.258;12.574;2023-09-12T16:04:53;19.60;99.90
13598;DHT22;38563;54.258;12.574;2023-09-12T16:07:20;19.60;99.90
13598;DHT22;38563;54.258;12.574;2023-09-12T16:09:46;19.50;99.90
13598;DHT22;38563;54.258;12.574;2023-09-12T16:12:13;19.50;99.90
13598;DHT22;38563;54.258;12.574;2023-09-12T16:14:40;19.50;99.90
13598;DHT22;38563;54.258;12.574;2023-09-12T16:17:07;19.50;99.90
13598;DHT22;38563;54.258;12.574;2023-09-12T16:19:33;19.50;99.90
13598;DHT22;38563;54.258;12.574;2023-09-12T16:22:01;19.50;99.90
13598;DHT22;38563;54.258;12.574;2023-09-12T16:24:30;19.50;99.90
13598;DHT22;38563;54.258;12.574;2023-09-12T16:26:57;19.60;99.90
13598;DHT22;38563;54.258;12.574;2023-09-12T16:29:26;19.60;99.90
13598;DHT22;38563;54.258;12.574;2023-09-12T16:31:52;19.60;99.90
13598;DHT22;38563;54.258;12.574;2023-09-12T16:34:19;19.60;99.90
13598;DHT22;38563;54.258;12.574;2023-09-12T16:36:46;19.50;99.90
13598;DHT22;38563;54.258;12.574;2023-09-12T16:39:15;19.60;99.90
13598;DHT22;38563;54.258;12.574;2023-09-12T16:41:42;19.50;99.90
13598;DHT22;38563;54.258;12.574;2023-09-12T16:44:08;19.60;99.90
13598;DHT22;38563;54.258;12.574;2023-09-12T16:46:35;19.60;99.90
13598;DHT22;38563;54.258;12.574;2023-09-12T16:49:02;19.60;99.90
13598;DHT22;38563;54.258;12.574;2023-09-12T16:51:28;19.60;99.90
13598;DHT22;38563;54.258;12.574;2023-09-12T16:53:55;19.60;99.90
13598;DHT22;38563;54.258;12.574;2023-09-12T16:56:23;19.60;99.90
13598;DHT22;38563;54.258;12.574;2023-09-12T16:58:50;19.60;99.90
13598;DHT22;38563;54.258;12.574;2023-09-12T17:01:16;19.50;99.90
13598;DHT22;38563;54.258;12.574;2023-09-12T17:03:44;19.50;99.90
13598;DHT22;38563;54.258;12.574;2023-09-12T17:06:10;19.50;99.90
13598;DHT22;38563;54.258;12.574;2023-09-12T17:08:37;19.50;99.90
13598;DHT22;38563;54.258;12.574;2023-09-12T17:11:04;19.50;99.90
13598;DHT22;38563;54.258;12.574;2023-09-12T17:13:32;19.40;99.90
13598;DHT22;38563;54.258;12.574;2023-09-12T17:15:58;19.40;99.90
13598;DHT22;38563;54.258;12.574;2023-09-12T17:18:25;19.40;99.90
13598;DHT22;38563;54.258;12.574;2023-09-12T17:20:52;19.40;99.90
13598;DHT22;38563;54.258;12.574;2023-09-12T17:23:19;19.40;99.90
13598;DHT22;38563;54.258;12.574;2023-09-12T17:25:45;19.40;99.90
13598;DHT22;38563;54.258;12.574;2023-09-12T17:28:13;19.40;99.90
13598;DHT22;38563;54.258;12.574;2023-09-12T17:30:41;19.30;99.90
13598;DHT22;38563;54.258;12.574;2023-09-12T17:33:07;19.30;99.90
13598;DHT22;38563;54.258;12.574;2023-09-12T17:35:35;19.30;99.90
13598;DHT22;38563;54.258;12.574;2023-09-12T17:38:02;19.30;99.90
13598;DHT22;38563;54.258;12.574;2023-09-12T17:40:29;19.30;99.90
13598;DHT22;38563;54.258;12.574;2023-09-12T17:42:58;19.20;99.90
13598;DHT22;38563;54.258;12.574;2023-09-12T17:45:28;19.20;99.90